Time;durP1;ratioP1;P1;durP2;ratioP2;P2;SDS_P1;SDS_P2;PMS_P1;PMS_P2;Temp;Humidity;BMP_temperature;BMP_pressure;BME280_temperature;BME280_humidity;BME280_pressure;Samples;Min_cycle;Max_cycle;Signal;HPM_P1;HPM_P2
2022/10/01 00:00:26;;;;;;;9.57;6.57;;;11.50;99.90;;;;;;5038089;28;20508;-47
2022/10/01 00:02:53;;;;;;;7.87;6.50;;;11.50;99.90;;;;;;5039023;28;20465;-45
2022/10/01 00:05:21;;;;;;;7.43;5.83;;;11.50;99.90;;;;;;5038425;28;20472;-42
2022/10/01 00:07:51;;;;;;;11.00;6.07;;;11.40;99.90;;;;;;5038156;28;20449;-46
2022/10/01 00:10:18;;;;;;;8.07;6.00;;;11.40;99.90;;;;;;5038037;28;20440;-45
2022/10/01 00:12:48;;;;;;;10.40;6.10;;;11.30;99.90;;;;;;5038042;28;20449;-45
2022/10/01 00:15:18;;;;;;;6.37;5.37;;;11.30;99.90;;;;;;5037654;28;20515;-46
2022/10/01 00:17:46;;;;;;;8.30;6.37;;;11.30;99.90;;;;;;5037621;28;20453;-50
2022/10/01 00:20:12;;;;;;;7.00;5.77;;;11.30;99.90;;;;;;5038088;28;20483;-48
2022/10/01 00:22:44;;;;;;;7.30;5.93;;;11.20;99.90;;;;;;5038911;28;20434;-43
2022/10/01 00:25:13;;;;;;;7.80;6.37;;;11.20;99.90;;;;;;5038701;28;20453;-46
2022/10/01 00:27:40;;;;;;;7.60;5.80;;;11.10;99.90;;;;;;5038530;28;20445;-48
2022/10/01 00:30:08;;;;;;;7.33;6.40;;;11.10;99.90;;;;;;5038123;28;20469;-46
2022/10/01 00:32:37;;;;;;;7.70;6.23;;;11.20;99.90;;;;;;5037826;28;20565;-49
2022/10/01 00:35:08;;;;;;;10.50;5.90;;;11.10;99.90;;;;;;5037897;28;20500;-45
2022/10/01 00:37:38;;;;;;;9.90;5.90;;;11.10;99.90;;;;;;5037570;28;20491;-46
2022/10/01 00:40:06;;;;;;;7.93;5.80;;;11.10;99.90;;;;;;5037530;28;20479;-46
2022/10/01 00:42:38;;;;;;;5.77;5.10;;;11.10;99.90;;;;;;5037927;28;20468;-46
2022/10/01 00:45:05;;;;;;;9.30;7.03;;;11.00;99.90;;;;;;5037161;28;20481;-45
2022/10/01 00:47:35;;;;;;;7.37;5.60;;;11.00;99.90;;;;;;5037672;28;20484;-49
2022/10/01 00:50:09;;;;;;;7.40;6.40;;;10.90;99.90;;;;;;5037669;28;20517;-48
2022/10/01 00:52:40;;;;;;;12.67;6.30;;;10.80;99.90;;;;;;5037122;28;20461;-50
2022/10/01 00:55:11;;;;;;;13.13;6.67;;;10.80;99.90;;;;;;5037359;28;20461;-49
2022/10/01 00:57:40;;;;;;;7.40;6.20;;;10.80;99.90;;;;;;5037744;28;20421;-46
2022/10/01 01:00:11;;;;;;;10.17;6.33;;;10.80;99.90;;;;;;5037822;28;20429;-44
2022/10/01 01:02:37;;;;;;;8.00;6.57;;;10.70;99.90;;;;;;5038346;28;20433;-47
2022/10/01 01:05:07;;;;;;;9.30;6.70;;;10.80;99.90;;;;;;5038047;28;20459;-43
2022/10/01 01:07:36;;;;;;;11.17;7.10;;;10.80;99.90;;;;;;5038635;28;20464;-46
2022/10/01 01:10:05;;;;;;;8.37;6.60;;;10.80;99.90;;;;;;5038308;28;20499;-47
2022/10/01 01:12:47;;;;;;;11.17;6.37;;;10.80;99.90;;;;;;5038409;28;20438;-42
2022/10/01 01:15:21;;;;;;;12.43;6.73;;;10.80;99.90;;;;;;5038394;28;20473;-41
2022/10/01 01:17:54;;;;;;;11.27;7.50;;;10.80;99.90;;;;;;5038813;28;20445;-45
2022/10/01 01:20:47;;;;;;;10.30;5.97;;;10.80;99.90;;;;;;5038787;28;20536;-41
2022/10/01 01:23:49;;;;;;;7.60;5.53;;;10.80;99.90;;;;;;5004405;28;20455;-47
2022/10/01 01:26:28;;;;;;;9.80;6.27;;;10.80;99.90;;;;;;5035559;28;20532;-44
2022/10/01 01:29:01;;;;;;;8.33;5.97;;;10.80;99.90;;;;;;5038352;28;20473;-46
2022/10/01 01:31:33;;;;;;;9.50;6.57;;;10.90;99.90;;;;;;5037951;28;20536;-43
2022/10/01 01:34:03;;;;;;;8.50;5.40;;;10.90;99.90;;;;;;5038313;28;20435;-43
2022/10/01 01:36:36;;;;;;;7.30;6.37;;;10.80;99.90;;;;;;5038158;28;20449;-40
2022/10/01 01:39:09;;;;;;;12.23;6.37;;;10.80;99.90;;;;;;5038135;28;20456;-41
2022/10/01 01:41:40;;;;;;;9.67;5.83;;;10.80;99.90;;;;;;5038215;28;20485;-44
2022/10/01 01:44:15;;;;;;;15.40;5.40;;;10.80;99.90;;;;;;5036743;28;20524;-47
2022/10/01 01:46:48;;;;;;;8.53;6.50;;;10.90;99.90;;;;;;5036716;28;20432;-47
2022/10/01 01:49:16;;;;;;;7.60;6.27;;;10.90;99.90;;;;;;5036460;28;20492;-49
2022/10/01 01:51:49;;;;;;;12.33;6.40;;;10.80;99.90;;;;;;5036545;28;20429;-42
2022/10/01 01:54:18;;;;;;;9.40;5.70;;;10.80;99.90;;;;;;5036526;28;20457;-48
2022/10/01 01:56:48;;;;;;;7.67;6.57;;;10.80;99.90;;;;;;5036516;28;20807;-44
2022/10/01 01:59:18;;;;;;;8.27;5.77;;;10.80;99.90;;;;;;5036723;28;20481;-48
2022/10/01 02:01:48;;;;;;;8.90;6.70;;;10.80;99.90;;;;;;5036830;28;20502;-42
2022/10/01 02:07:25;;;;;;;12.60;7.17;;;10.80;99.90;;;;;;5039402;28;20460;-40
2022/10/01 02:10:03;;;;;;;10.53;6.53;;;10.80;99.90;;;;;;5026711;28;20527;-39
2022/10/01 02:12:40;;;;;;;11.13;7.33;;;10.70;99.90;;;;;;5040076;28;20445;-43
2022/10/01 02:15:20;;;;;;;8.17;5.83;;;10.60;99.90;;;;;;5040735;28;20429;-40
2022/10/01 02:17:57;;;;;;;10.53;6.47;;;10.60;99.90;;;;;;5040600;28;20447;-41
2022/10/01 02:20:30;;;;;;;6.83;5.50;;;10.60;99.90;;;;;;5040969;28;20429;-38
2022/10/01 02:23:02;;;;;;;9.37;6.73;;;10.60;99.90;;;;;;5040771;28;20435;-40
2022/10/01 02:25:36;;;;;;;13.07;6.87;;;10.60;99.90;;;;;;5040647;28;21009;-45
2022/10/01 02:28:08;;;;;;;8.87;6.10;;;10.60;99.90;;;;;;5039555;28;20465;-40
2022/10/01 02:30:40;;;;;;;10.07;6.80;;;10.60;99.90;;;;;;5040211;28;20475;-40
2022/10/01 02:33:13;;;;;;;10.90;6.23;;;10.60;99.90;;;;;;5040141;28;20472;-40
2022/10/01 02:35:43;;;;;;;8.93;7.13;;;10.60;99.90;;;;;;5040249;28;20452;-40
2022/10/01 02:38:11;;;;;;;7.43;6.57;;;10.60;99.90;;;;;;5040115;28;20471;-42
2022/10/01 02:40:42;;;;;;;12.50;9.00;;;10.50;99.90;;;;;;5040025;28;20429;-38
2022/10/01 02:43:13;;;;;;;8.50;5.97;;;10.50;99.90;;;;;;5039724;28;20433;-39
2022/10/01 02:45:45;;;;;;;7.03;5.73;;;10.40;99.90;;;;;;5039695;28;20437;-40
2022/10/01 02:48:16;;;;;;;8.67;6.70;;;10.40;99.90;;;;;;5039540;28;20433;-43
2022/10/01 02:50:48;;;;;;;9.00;6.90;;;10.40;99.90;;;;;;5039826;28;20540;-42
2022/10/01 02:53:20;;;;;;;9.87;6.00;;;10.30;99.90;;;;;;5039725;28;20429;-44
2022/10/01 02:55:49;;;;;;;8.63;6.57;;;10.30;99.90;;;;;;5039887;28;20465;-43
2022/10/01 02:58:17;;;;;;;14.00;7.30;;;10.30;99.90;;;;;;5039614;28;20429;-39
2022/10/01 03:00:45;;;;;;;9.23;6.97;;;10.30;99.90;;;;;;5039739;28;20477;-40
2022/10/01 03:03:17;;;;;;;10.50;6.67;;;10.30;99.90;;;;;;5039855;28;20463;-41
2022/10/01 03:05:44;;;;;;;8.50;6.67;;;10.20;99.90;;;;;;5040249;28;20484;-40
2022/10/01 03:08:10;;;;;;;8.57;6.07;;;10.20;99.90;;;;;;5040551;28;20432;-41
2022/10/01 03:10:39;;;;;;;9.17;5.57;;;10.20;99.90;;;;;;5040295;28;20500;-42
2022/10/01 03:13:08;;;;;;;13.37;6.90;;;10.20;99.90;;;;;;5040690;28;20560;-41
2022/10/01 03:15:35;;;;;;;10.33;7.10;;;10.20;99.90;;;;;;5039372;28;20476;-38
2022/10/01 03:18:03;;;;;;;14.67;7.50;;;10.20;99.90;;;;;;5039911;28;20468;-41
2022/10/01 03:20:32;;;;;;;14.23;7.10;;;10.20;99.90;;;;;;5039915;28;20451;-44
2022/10/01 03:23:03;;;;;;;8.50;6.80;;;10.10;99.90;;;;;;5039365;28;20463;-41
2022/10/01 03:25:30;;;;;;;12.77;6.67;;;10.10;99.90;;;;;;5039780;28;20437;-43
2022/10/01 03:27:58;;;;;;;8.03;6.23;;;10.10;99.90;;;;;;5039321;28;20473;-44
2022/10/01 03:30:27;;;;;;;8.63;7.20;;;10.00;99.90;;;;;;5039045;28;20467;-37
2022/10/01 03:32:53;;;;;;;9.70;7.10;;;10.00;99.90;;;;;;5039155;28;20437;-44
2022/10/01 03:35:23;;;;;;;8.90;6.50;;;10.00;99.90;;;;;;5039095;28;20445;-38
2022/10/01 03:37:50;;;;;;;8.37;7.33;;;10.00;99.90;;;;;;5038844;28;20429;-42
2022/10/01 03:40:17;;;;;;;10.33;6.70;;;10.00;99.90;;;;;;5038962;28;20441;-39
2022/10/01 03:42:47;;;;;;;10.00;6.30;;;10.00;99.90;;;;;;5038927;28;20449;-39
2022/10/01 03:45:14;;;;;;;9.30;6.77;;;10.00;99.90;;;;;;5038736;28;20533;-40
2022/10/01 03:47:41;;;;;;;8.13;5.97;;;10.00;99.90;;;;;;5039106;28;20445;-43
2022/10/01 03:50:08;;;;;;;9.40;5.73;;;10.00;99.90;;;;;;5038901;28;20496;-40
2022/10/01 03:52:38;;;;;;;8.50;5.80;;;10.00;99.90;;;;;;5038471;28;20445;-41
2022/10/01 03:55:06;;;;;;;10.97;6.73;;;9.90;99.90;;;;;;5039039;28;20545;-40
2022/10/01 03:57:32;;;;;;;9.53;6.77;;;9.90;99.90;;;;;;5038772;28;20447;-43
2022/10/01 04:00:02;;;;;;;9.67;6.27;;;9.90;99.90;;;;;;5038481;28;20449;-38
2022/10/01 04:02:29;;;;;;;8.50;5.90;;;9.80;99.90;;;;;;5038588;28;20465;-41
2022/10/01 04:04:55;;;;;;;9.83;6.87;;;9.80;99.90;;;;;;5038568;28;20477;-40
2022/10/01 04:07:24;;;;;;;12.73;7.23;;;9.80;99.90;;;;;;5038623;28;20460;-39
2022/10/01 04:09:52;;;;;;;7.97;5.57;;;9.80;99.90;;;;;;5038893;28;20492;-41
2022/10/01 04:12:21;;;;;;;10.93;6.27;;;9.80;99.90;;;;;;5039184;28;20488;-42
2022/10/01 04:14:48;;;;;;;17.03;7.00;;;9.80;99.90;;;;;;5039077;28;20456;-41
2022/10/01 04:17:15;;;;;;;8.40;5.60;;;9.80;99.90;;;;;;5038842;28;20461;-41
2022/10/01 04:19:43;;;;;;;8.00;6.13;;;9.80;99.90;;;;;;5038479;28;20450;-43
2022/10/01 04:22:10;;;;;;;8.40;6.37;;;9.80;99.90;;;;;;5038327;28;20445;-39
2022/10/01 04:24:37;;;;;;;8.67;5.13;;;9.80;99.90;;;;;;5038171;28;20471;-42
2022/10/01 04:27:05;;;;;;;11.70;6.80;;;9.80;99.90;;;;;;5037669;28;20529;-39
2022/10/01 04:29:32;;;;;;;12.20;6.80;;;9.80;99.90;;;;;;5037661;28;20488;-39
2022/10/01 04:32:02;;;;;;;8.47;5.77;;;9.80;99.90;;;;;;5037898;28;20481;-38
2022/10/01 04:37:11;;;;;;;10.50;6.57;;;9.70;99.90;;;;;;5037258;28;20437;-37
2022/10/01 04:39:38;;;;;;;10.20;5.87;;;9.70;99.90;;;;;;5037936;28;20457;-40
2022/10/01 04:42:06;;;;;;;8.73;6.17;;;9.70;99.90;;;;;;5038007;28;20441;-42
2022/10/01 04:44:33;;;;;;;7.80;4.70;;;9.70;99.90;;;;;;5038258;28;20458;-40
2022/10/01 04:47:02;;;;;;;8.23;5.83;;;9.70;99.90;;;;;;5037697;28;20452;-43
2022/10/01 04:49:30;;;;;;;9.33;6.10;;;9.70;99.90;;;;;;5037239;28;20443;-44
2022/10/01 04:51:57;;;;;;;9.20;5.30;;;9.80;99.90;;;;;;5037230;28;20477;-38
2022/10/01 04:54:24;;;;;;;8.80;5.97;;;9.80;99.90;;;;;;5038080;28;20445;-43
2022/10/01 04:56:51;;;;;;;8.43;5.57;;;9.70;99.90;;;;;;5037567;28;20456;-44
2022/10/01 04:59:20;;;;;;;6.30;5.47;;;9.80;99.90;;;;;;5037469;28;20468;-41
2022/10/01 05:01:47;;;;;;;9.87;6.43;;;9.80;99.90;;;;;;5037208;28;20483;-42
2022/10/01 05:04:13;;;;;;;6.90;5.77;;;9.80;99.90;;;;;;5037203;28;20448;-41
2022/10/01 05:06:41;;;;;;;7.97;5.30;;;9.80;99.90;;;;;;5037712;28;20429;-40
2022/10/01 05:09:08;;;;;;;9.03;6.10;;;9.80;99.90;;;;;;5037725;28;20477;-41
2022/10/01 05:11:36;;;;;;;7.30;5.70;;;9.80;99.90;;;;;;5038220;28;20463;-39
2022/10/01 05:14:02;;;;;;;6.47;5.00;;;9.80;99.90;;;;;;5038191;28;20477;-38
2022/10/01 05:16:31;;;;;;;8.67;6.13;;;9.80;99.90;;;;;;5038095;28;20452;-38
2022/10/01 05:18:57;;;;;;;5.53;4.40;;;9.80;99.90;;;;;;5038082;28;20461;-39
2022/10/01 05:21:27;;;;;;;7.57;4.73;;;9.80;99.90;;;;;;5037739;28;20464;-43
2022/10/01 05:23:59;;;;;;;6.10;4.57;;;9.80;99.90;;;;;;5037185;28;20520;-39
2022/10/01 05:26:26;;;;;;;8.50;5.30;;;9.80;99.90;;;;;;5037228;28;20445;-39
2022/10/01 05:28:57;;;;;;;10.93;5.67;;;9.80;99.90;;;;;;5036852;28;20453;-46
2022/10/01 05:31:26;;;;;;;6.30;4.90;;;9.80;99.90;;;;;;5036877;28;20488;-45
2022/10/01 05:33:54;;;;;;;7.40;6.00;;;9.90;99.90;;;;;;5037132;28;20433;-46
2022/10/01 05:36:21;;;;;;;7.77;5.50;;;9.90;99.90;;;;;;5037275;28;20467;-43
2022/10/01 05:38:48;;;;;;;6.93;4.70;;;9.90;99.90;;;;;;5036586;28;20504;-44
2022/10/01 05:41:16;;;;;;;5.30;4.00;;;9.90;99.90;;;;;;5036803;28;20437;-41
2022/10/01 05:43:43;;;;;;;11.37;4.87;;;9.90;99.90;;;;;;5036745;28;20464;-45
2022/10/01 05:46:10;;;;;;;6.80;5.20;;;9.90;99.90;;;;;;5036891;28;20453;-45
2022/10/01 05:48:40;;;;;;;5.30;4.80;;;9.90;99.90;;;;;;5049051;28;20500;-40
2022/10/01 05:51:08;;;;;;;8.63;5.53;;;9.80;99.90;;;;;;5036484;28;20544;-41
2022/10/01 05:53:36;;;;;;;5.53;4.90;;;9.80;99.90;;;;;;5034610;28;20524;-44
2022/10/01 05:56:03;;;;;;;7.03;4.70;;;9.90;99.90;;;;;;5034829;28;20434;-43
2022/10/01 05:58:32;;;;;;;13.90;7.73;;;10.00;99.90;;;;;;5034519;28;20476;-41
2022/10/01 06:00:59;;;;;;;11.33;8.07;;;10.00;99.90;;;;;;5035504;28;20488;-43
2022/10/01 06:03:27;;;;;;;5.80;4.57;;;10.00;99.90;;;;;;5035205;28;20445;-48
2022/10/01 06:05:54;;;;;;;7.70;4.53;;;10.10;99.90;;;;;;5034478;28;20476;-43
2022/10/01 06:08:23;;;;;;;3.93;3.60;;;10.10;99.90;;;;;;5035379;28;20464;-44
2022/10/01 06:10:50;;;;;;;8.10;4.00;;;10.10;99.90;;;;;;5035019;28;20529;-42
2022/10/01 06:13:17;;;;;;;6.10;4.50;;;10.20;99.90;;;;;;5035676;28;20451;-43
2022/10/01 06:15:45;;;;;;;11.97;5.97;;;10.20;99.90;;;;;;5035613;28;20464;-39
2022/10/01 06:18:14;;;;;;;5.80;3.83;;;10.20;99.90;;;;;;5036406;28;20456;-46
2022/10/01 06:20:40;;;;;;;4.10;3.50;;;10.30;99.90;;;;;;5036044;28;20452;-43
2022/10/01 06:23:11;;;;;;;8.50;4.93;;;10.30;99.90;;;;;;5035706;28;20540;-44
2022/10/01 06:25:42;;;;;;;7.33;6.30;;;10.40;99.90;;;;;;5035684;28;20476;-46
2022/10/01 06:28:14;;;;;;;10.63;5.60;;;10.40;99.90;;;;;;5035602;28;20436;-43
2022/10/01 06:30:41;;;;;;;6.17;4.70;;;10.50;99.90;;;;;;5036128;28;20487;-46
2022/10/01 06:33:09;;;;;;;8.33;5.60;;;10.50;99.90;;;;;;5035970;28;20661;-42
2022/10/01 06:35:41;;;;;;;8.27;4.50;;;10.60;99.90;;;;;;5035526;28;20483;-39
2022/10/01 06:38:10;;;;;;;5.93;4.63;;;10.60;99.90;;;;;;5035410;28;20448;-45
2022/10/01 06:40:39;;;;;;;5.83;3.93;;;10.70;99.90;;;;;;5035489;28;20429;-44
2022/10/01 06:43:07;;;;;;;7.13;4.90;;;10.70;99.90;;;;;;5035671;28;20440;-42
2022/10/01 06:45:37;;;;;;;7.73;4.60;;;10.70;99.90;;;;;;5033920;28;20465;-42
2022/10/01 06:48:05;;;;;;;4.50;4.00;;;10.70;99.90;;;;;;5039374;28;20457;-39
2022/10/01 06:50:33;;;;;;;4.87;4.27;;;10.80;99.90;;;;;;5039204;28;20487;-45
2022/10/01 06:53:03;;;;;;;6.87;5.00;;;10.80;99.90;;;;;;5039219;28;20432;-44
2022/10/01 06:55:32;;;;;;;6.70;4.80;;;10.90;99.90;;;;;;5039321;28;20445;-43
2022/10/01 06:58:02;;;;;;;6.50;5.23;;;10.90;99.90;;;;;;5039457;28;20433;-41
2022/10/01 07:00:33;;;;;;;9.53;5.33;;;10.90;99.90;;;;;;5038826;28;20464;-41
2022/10/01 07:03:00;;;;;;;11.57;5.80;;;11.00;99.90;;;;;;5054900;28;20480;-42
2022/10/01 07:05:27;;;;;;;9.27;6.10;;;11.00;99.90;;;;;;5058392;28;20553;-47
2022/10/01 07:07:54;;;;;;;8.43;5.80;;;11.00;99.90;;;;;;5057948;28;20412;-45
2022/10/01 07:10:22;;;;;;;7.50;4.33;;;11.00;99.90;;;;;;5057662;28;20484;-42
2022/10/01 07:12:51;;;;;;;5.70;5.00;;;11.10;99.90;;;;;;5057874;28;20464;-46
2022/10/01 07:15:22;;;;;;;7.07;5.83;;;11.00;99.90;;;;;;5057904;28;20508;-43
2022/10/01 07:17:51;;;;;;;9.17;5.73;;;11.10;99.90;;;;;;5056835;28;20691;-44
2022/10/01 07:20:19;;;;;;;8.50;5.10;;;11.10;99.90;;;;;;5057963;28;20516;-43
2022/10/01 07:22:47;;;;;;;6.13;4.60;;;11.10;99.90;;;;;;5057614;28;20448;-39
2022/10/01 07:25:14;;;;;;;6.90;3.83;;;11.10;99.90;;;;;;5058306;28;20445;-45
2022/10/01 07:27:41;;;;;;;6.47;4.10;;;11.10;99.90;;;;;;5057852;28;20440;-44
2022/10/01 07:30:09;;;;;;;7.87;4.70;;;11.10;99.90;;;;;;5057553;28;20475;-42
2022/10/01 07:32:37;;;;;;;7.00;4.40;;;11.10;99.90;;;;;;5058805;28;20436;-43
2022/10/01 07:35:04;;;;;;;7.90;4.90;;;11.20;99.90;;;;;;5058657;28;20448;-40
2022/10/01 07:37:31;;;;;;;7.73;5.17;;;11.20;99.90;;;;;;5057956;28;20444;-44
2022/10/01 07:39:58;;;;;;;8.03;4.60;;;11.20;99.90;;;;;;5057934;28;20446;-39
2022/10/01 07:42:26;;;;;;;6.40;5.27;;;11.20;99.90;;;;;;5057441;28;20442;-43
2022/10/01 07:44:53;;;;;;;10.73;5.00;;;11.30;99.90;;;;;;5057748;28;20471;-44
2022/10/01 07:47:21;;;;;;;6.23;4.60;;;11.40;99.90;;;;;;5057214;28;20447;-44
2022/10/01 07:49:49;;;;;;;8.07;4.03;;;11.40;99.90;;;;;;5057099;28;20517;-43
2022/10/01 07:52:15;;;;;;;6.63;4.50;;;11.50;99.90;;;;;;5056705;28;20580;-44
2022/10/01 07:54:42;;;;;;;7.47;5.10;;;11.50;99.90;;;;;;5057027;28;20471;-42
2022/10/01 07:57:09;;;;;;;6.10;4.83;;;11.60;99.90;;;;;;5057347;28;20463;-40
2022/10/01 07:59:36;;;;;;;6.43;4.77;;;11.70;99.90;;;;;;5057763;28;20432;-42
2022/10/01 08:02:06;;;;;;;7.03;4.73;;;11.90;99.90;;;;;;5057565;28;20487;-41
2022/10/01 08:07:20;;;;;;;6.93;4.60;;;11.90;99.90;;;;;;5058372;28;20443;-42
2022/10/01 08:09:48;;;;;;;7.83;4.50;;;11.90;99.90;;;;;;5058436;28;20460;-40
2022/10/01 08:12:16;;;;;;;13.70;4.60;;;12.00;99.90;;;;;;5058192;28;20547;-42
2022/10/01 08:14:42;;;;;;;4.83;3.70;;;12.00;99.90;;;;;;5058506;28;20491;-39
2022/10/01 08:17:09;;;;;;;7.30;4.73;;;12.10;99.90;;;;;;5058677;28;20434;-42
2022/10/01 08:19:36;;;;;;;7.30;4.60;;;12.10;99.90;;;;;;5057866;28;20456;-40
2022/10/01 08:22:03;;;;;;;5.50;4.60;;;12.10;99.90;;;;;;5058254;28;20462;-39
2022/10/01 08:24:33;;;;;;;6.27;4.60;;;12.20;99.90;;;;;;5058059;28;20494;-39
2022/10/01 08:27:00;;;;;;;5.57;3.83;;;12.20;99.90;;;;;;5057713;28;20472;-38
2022/10/01 08:29:27;;;;;;;5.40;3.97;;;12.30;99.90;;;;;;5057047;28;20458;-41
2022/10/01 08:31:55;;;;;;;5.20;4.10;;;12.40;99.90;;;;;;5056802;28;20479;-41
2022/10/01 08:34:22;;;;;;;7.73;4.13;;;12.40;99.90;;;;;;5056883;28;20467;-42
2022/10/01 08:36:50;;;;;;;6.60;4.13;;;12.40;99.90;;;;;;5056809;28;20544;-40
2022/10/01 08:39:17;;;;;;;7.17;5.60;;;12.40;99.90;;;;;;5057054;28;20428;-42
2022/10/01 08:41:53;;;;;;;5.40;4.20;;;12.40;99.90;;;;;;5056760;28;20465;-45
2022/10/01 08:44:26;;;;;;;7.17;3.97;;;12.50;99.90;;;;;;5056654;28;20422;-43
2022/10/01 08:46:59;;;;;;;6.50;3.70;;;12.50;99.90;;;;;;5056576;28;20432;-44
2022/10/01 08:49:31;;;;;;;6.20;3.83;;;12.50;99.90;;;;;;5056410;28;20429;-43
2022/10/01 08:52:05;;;;;;;4.43;3.83;;;12.60;99.90;;;;;;5056574;28;20471;-41
2022/10/01 08:54:36;;;;;;;5.50;4.40;;;12.60;99.90;;;;;;5056344;28;20910;-41
2022/10/01 08:57:11;;;;;;;4.03;3.53;;;12.80;99.90;;;;;;5056644;28;20452;-45
2022/10/01 08:59:42;;;;;;;5.03;3.20;;;12.90;99.90;;;;;;5056089;28;20495;-39
2022/10/01 09:02:22;;;;;;;5.00;3.13;;;13.00;99.90;;;;;;5056393;28;20440;-40
2022/10/01 09:04:55;;;;;;;5.90;4.13;;;13.20;99.90;;;;;;5056250;28;20944;-44
2022/10/01 09:07:44;;;;;;;5.70;3.93;;;13.20;99.90;;;;;;5056133;28;20428;-45
2022/10/01 09:10:24;;;;;;;4.93;3.10;;;13.30;99.90;;;;;;5056372;28;20976;-43
2022/10/01 09:13:13;;;;;;;6.63;4.43;;;13.50;99.90;;;;;;5038645;28;20860;-44
2022/10/01 09:15:44;;;;;;;4.50;3.27;;;13.50;99.90;;;;;;5039989;28;20507;-41
2022/10/01 09:18:21;;;;;;;4.93;3.83;;;13.50;99.90;;;;;;5056765;28;20440;-43
2022/10/01 09:20:54;;;;;;;5.80;3.40;;;13.50;99.90;;;;;;5056869;28;20491;-44
2022/10/01 09:23:27;;;;;;;7.20;3.20;;;13.60;99.90;;;;;;5056454;28;20523;-46
2022/10/01 09:25:56;;;;;;;4.13;3.23;;;13.60;99.90;;;;;;5056307;28;20466;-43
2022/10/01 09:28:27;;;;;;;5.03;3.63;;;13.70;99.90;;;;;;5056087;28;20425;-41
2022/10/01 09:30:57;;;;;;;4.13;3.43;;;13.70;99.90;;;;;;5056346;28;20432;-42
2022/10/01 09:33:29;;;;;;;4.20;3.77;;;13.80;99.90;;;;;;5056361;28;20421;-40
2022/10/01 09:36:05;;;;;;;7.13;2.90;;;13.90;99.90;;;;;;5056186;28;20442;-39
2022/10/01 09:38:37;;;;;;;3.93;3.07;;;13.90;99.90;;;;;;5056284;28;20468;-40
2022/10/01 09:41:05;;;;;;;3.67;3.00;;;14.20;99.90;;;;;;5056426;28;20452;-41
2022/10/01 09:43:36;;;;;;;4.03;2.67;;;14.40;99.90;;;;;;5056205;28;20468;-42
2022/10/01 09:46:05;;;;;;;3.77;2.40;;;14.50;99.90;;;;;;5056205;28;20491;-40
2022/10/01 09:48:39;;;;;;;4.73;2.83;;;14.50;99.90;;;;;;5055960;28;20494;-46
2022/10/01 09:51:10;;;;;;;2.80;2.17;;;14.40;99.90;;;;;;5056000;28;20498;-38
2022/10/01 09:53:43;;;;;;;2.63;1.77;;;14.10;99.90;;;;;;5055959;28;21384;-41
2022/10/01 09:56:15;;;;;;;2.67;2.47;;;13.90;99.90;;;;;;5055655;28;20455;-44
2022/10/01 09:58:47;;;;;;;5.40;2.70;;;13.80;99.90;;;;;;5055629;28;20413;-43
2022/10/01 10:01:23;;;;;;;3.60;2.17;;;13.80;99.90;;;;;;5055622;28;20419;-42
2022/10/01 10:03:55;;;;;;;2.30;1.93;;;13.70;99.90;;;;;;5055768;28;20458;-41
2022/10/01 10:06:26;;;;;;;1.93;1.70;;;13.70;99.90;;;;;;5055736;28;20468;-39
2022/10/01 10:08:55;;;;;;;3.07;2.13;;;13.60;99.90;;;;;;5056578;28;20432;-39
2022/10/01 10:11:24;;;;;;;3.03;2.13;;;13.40;99.90;;;;;;5055708;28;20480;-43
2022/10/01 10:13:58;;;;;;;4.43;2.20;;;13.20;99.90;;;;;;5055832;28;20496;-48
2022/10/01 10:16:27;;;;;;;3.20;2.50;;;13.10;99.90;;;;;;5056591;28;20451;-47
2022/10/01 10:18:57;;;;;;;3.70;2.97;;;12.90;99.90;;;;;;5056516;28;20440;-51
2022/10/01 10:21:27;;;;;;;4.80;3.10;;;12.90;99.90;;;;;;5056457;28;20467;-49
2022/10/01 10:23:56;;;;;;;4.20;2.70;;;12.70;99.90;;;;;;5057008;28;20432;-46
2022/10/01 10:26:30;;;;;;;4.10;2.77;;;12.60;99.90;;;;;;5060449;28;20424;-51
2022/10/01 10:29:00;;;;;;;3.73;3.20;;;12.60;99.90;;;;;;5060501;28;20442;-48
2022/10/01 10:31:30;;;;;;;5.17;3.33;;;12.50;99.90;;;;;;5061208;28;20519;-54
2022/10/01 10:34:06;;;;;;;5.50;3.57;;;12.40;99.90;;;;;;5061331;28;20459;-47
2022/10/01 10:36:35;;;;;;;2.70;2.47;;;12.30;99.90;;;;;;5060953;28;20436;-48
2022/10/01 10:39:04;;;;;;;3.93;3.33;;;12.30;99.90;;;;;;5060938;28;20464;-55
2022/10/01 10:41:34;;;;;;;5.50;3.20;;;12.20;99.90;;;;;;5061280;28;20471;-49
2022/10/01 10:44:05;;;;;;;5.47;3.43;;;12.20;99.90;;;;;;5061098;28;20571;-52
2022/10/01 10:46:34;;;;;;;4.53;3.20;;;12.10;99.90;;;;;;5061366;28;20432;-54
2022/10/01 10:49:09;;;;;;;4.50;3.20;;;12.00;99.90;;;;;;5060742;28;20428;-47
2022/10/01 10:51:44;;;;;;;5.57;4.10;;;12.00;99.90;;;;;;5060045;28;20447;-46
2022/10/01 10:54:19;;;;;;;4.27;3.50;;;12.00;99.90;;;;;;5060378;28;20443;-47
2022/10/01 10:57:01;;;;;;;7.17;4.20;;;11.90;99.90;;;;;;5060392;28;20450;-45
2022/10/01 10:59:31;;;;;;;4.50;3.73;;;11.80;99.90;;;;;;5059897;28;20516;-47
2022/10/01 11:01:59;;;;;;;6.40;4.00;;;11.80;99.90;;;;;;5059995;28;20420;-50
2022/10/01 11:04:38;;;;;;;5.67;4.13;;;11.80;99.90;;;;;;5059503;28;20440;-49
2022/10/01 11:07:05;;;;;;;5.43;4.10;;;11.80;99.90;;;;;;5059817;28;20467;-49
2022/10/01 11:09:47;;;;;;;9.23;4.50;;;11.80;99.90;;;;;;5060309;28;20507;-45
2022/10/01 11:12:27;;;;;;;4.67;3.60;;;11.80;99.90;;;;;;5058949;28;20543;-47
2022/10/01 11:15:16;;;;;;;4.90;3.70;;;11.80;99.90;;;;;;5059330;28;20413;-45
2022/10/01 11:18:23;;;;;;;6.10;3.43;;;11.80;99.90;;;;;;5059166;28;20468;-46
2022/10/01 11:20:59;;;;;;;4.30;3.60;;;11.80;99.90;;;;;;5059404;28;20492;-48
2022/10/01 11:23:49;;;;;;;4.70;3.43;;;11.80;99.90;;;;;;5059230;28;20519;-48
2022/10/01 11:26:27;;;;;;;6.40;3.80;;;11.80;99.90;;;;;;5058652;28;20428;-50
2022/10/01 11:29:12;;;;;;;4.97;3.80;;;11.80;99.90;;;;;;5058933;28;20468;-50
2022/10/01 11:31:48;;;;;;;6.27;3.30;;;11.70;99.90;;;;;;5058739;28;20524;-50
2022/10/01 11:34:38;;;;;;;5.07;3.33;;;11.80;99.90;;;;;;5058669;28;20452;-52
2022/10/01 11:37:15;;;;;;;6.43;3.47;;;11.80;99.90;;;;;;5058238;28;20444;-46
2022/10/01 11:39:44;;;;;;;6.23;3.57;;;11.80;99.90;;;;;;5058505;28;20467;-52
2022/10/01 11:42:16;;;;;;;3.30;2.80;;;11.80;99.90;;;;;;5059357;28;20443;-44
2022/10/01 11:44:46;;;;;;;4.40;3.23;;;11.80;99.90;;;;;;5059171;28;20464;-51
2022/10/01 11:47:22;;;;;;;6.00;3.67;;;11.90;99.90;;;;;;5058449;28;20475;-45
2022/10/01 11:49:58;;;;;;;4.17;3.17;;;11.90;99.90;;;;;;5058546;28;20459;-48
2022/10/01 11:52:35;;;;;;;4.00;3.30;;;11.90;99.90;;;;;;5058536;28;20487;-49
2022/10/01 12:00:55;;;;;;;4.87;3.37;;;11.90;99.90;;;;;;5059369;28;20448;-44
2022/10/01 12:03:30;;;;;;;7.27;3.53;;;11.90;99.90;;;;;;5059140;28;20459;-49
2022/10/01 12:05:57;;;;;;;4.03;2.40;;;11.90;99.90;;;;;;5058419;28;20451;-46
2022/10/01 12:08:30;;;;;;;3.80;2.70;;;11.90;99.90;;;;;;5058276;28;20503;-44
2022/10/01 12:11:06;;;;;;;3.57;2.90;;;11.90;99.90;;;;;;5058619;28;20408;-46
2022/10/01 12:13:38;;;;;;;4.07;2.97;;;11.90;99.90;;;;;;5057819;28;20535;-47
2022/10/01 12:16:12;;;;;;;4.37;2.87;;;12.00;99.90;;;;;;5058128;28;20500;-50
2022/10/01 12:18:50;;;;;;;4.30;2.70;;;12.00;99.90;;;;;;5058213;28;20459;-48
2022/10/01 12:21:22;;;;;;;3.27;2.57;;;12.00;99.90;;;;;;5058018;28;20462;-43
2022/10/01 12:23:57;;;;;;;5.00;2.50;;;12.00;99.90;;;;;;5057836;28;20461;-46
2022/10/01 12:26:34;;;;;;;3.93;2.30;;;12.10;99.90;;;;;;5058363;28;20468;-47
2022/10/01 12:29:09;;;;;;;5.93;2.40;;;12.10;99.90;;;;;;5057645;28;20464;-48
2022/10/01 12:31:42;;;;;;;2.50;1.93;;;12.10;99.90;;;;;;5057984;28;20667;-46
2022/10/01 12:34:21;;;;;;;2.07;1.80;;;12.10;99.90;;;;;;5057872;28;20443;-42
2022/10/01 12:37:03;;;;;;;3.03;2.00;;;12.10;99.90;;;;;;5057473;28;20455;-45
2022/10/01 12:39:46;;;;;;;3.60;2.33;;;12.10;99.90;;;;;;5058285;28;20464;-47
2022/10/01 12:42:52;;;;;;;2.43;1.90;;;12.00;99.90;;;;;;5058271;28;20432;-44
2022/10/01 12:45:29;;;;;;;3.60;2.77;;;11.90;99.90;;;;;;5011491;28;20544;-45
2022/10/01 12:48:06;;;;;;;2.90;1.73;;;11.90;99.90;;;;;;5057900;28;20436;-49
2022/10/01 12:50:44;;;;;;;5.60;2.97;;;11.90;99.90;;;;;;5057824;28;20426;-48
2022/10/01 12:53:24;;;;;;;3.60;2.23;;;11.90;99.90;;;;;;5057760;28;20458;-44
2022/10/01 12:56:03;;;;;;;5.53;2.90;;;11.80;99.90;;;;;;5057599;28;20436;-49
2022/10/01 12:59:05;;;;;;;2.50;2.30;;;11.80;99.90;;;;;;5057553;28;20425;-51
2022/10/01 13:01:44;;;;;;;4.13;3.00;;;11.80;99.90;;;;;;5055703;28;20436;-44
2022/10/01 13:04:25;;;;;;;4.20;2.90;;;11.80;99.90;;;;;;5056558;28;21015;-48
2022/10/01 13:07:08;;;;;;;3.30;2.80;;;11.80;99.90;;;;;;5057208;28;20428;-44
2022/10/01 13:09:48;;;;;;;3.93;2.53;;;11.80;99.90;;;;;;5056908;28;20426;-49
2022/10/01 13:12:35;;;;;;;3.13;2.13;;;11.80;99.90;;;;;;5056554;28;20490;-46
2022/10/01 13:15:03;;;;;;;3.97;2.90;;;11.80;99.90;;;;;;5056716;28;20540;-48
2022/10/01 13:17:38;;;;;;;3.67;2.57;;;11.80;99.90;;;;;;5056617;28;20444;-53
2022/10/01 13:20:14;;;;;;;3.00;2.47;;;11.80;99.90;;;;;;5057080;28;20447;-47
2022/10/01 13:22:47;;;;;;;3.07;2.77;;;11.80;99.90;;;;;;5056998;28;20408;-48